sensor_id;sensor_type;location;lat;lon;timestamp;temperature;humidity
21280;DHT22;11764;43.100;25.716;2022-09-13T00:00:08;16.90;99.90
21280;DHT22;11764;43.100;25.716;2022-09-13T00:02:34;17.00;99.90
21280;DHT22;11764;43.100;25.716;2022-09-13T00:05:00;16.90;99.90
21280;DHT22;11764;43.100;25.716;2022-09-13T00:07:25;16.90;99.90
21280;DHT22;11764;43.100;25.716;2022-09-13T00:09:51;16.90;99.90
21280;DHT22;11764;43.100;25.716;2022-09-13T00:12:17;16.90;99.90
21280;DHT22;11764;43.100;25.716;2022-09-13T00:14:42;16.90;99.90
21280;DHT22;11764;43.100;25.716;2022-09-13T00:17:08;16.90;99.90
21280;DHT22;11764;43.100;25.716;2022-09-13T00:19:34;16.90;99.90
21280;DHT22;11764;43.100;25.716;2022-09-13T00:21:59;16.90;99.90
21280;DHT22;11764;43.100;25.716;2022-09-13T00:24:25;16.80;99.90
21280;DHT22;11764;43.100;25.716;2022-09-13T00:26:51;16.90;99.90
21280;DHT22;11764;43.100;25.716;2022-09-13T00:29:16;16.90;99.90
21280;DHT22;11764;43.100;25.716;2022-09-13T00:31:42;16.90;99.90
21280;DHT22;11764;43.100;25.716;2022-09-13T00:34:08;16.90;99.90
21280;DHT22;11764;43.100;25.716;2022-09-13T00:36:33;16.80;99.90
21280;DHT22;11764;43.100;25.716;2022-09-13T00:39:00;16.90;99.90
21280;DHT22;11764;43.100;25.716;2022-09-13T00:41:25;16.90;99.90
21280;DHT22;11764;43.100;25.716;2022-09-13T00:43:52;16.90;99.90
21280;DHT22;11764;43.100;25.716;2022-09-13T00:49:13;16.80;99.90
21280;DHT22;11764;43.100;25.716;2022-09-13T00:51:42;16.80;99.90
21280;DHT22;11764;43.100;25.716;2022-09-13T00:54:09;16.80;99.90
21280;DHT22;11764;43.100;25.716;2022-09-13T00:56:40;16.70;99.90
21280;DHT22;11764;43.100;25.716;2022-09-13T00:59:28;16.60;99.90
21280;DHT22;11764;43.100;25.716;2022-09-13T01:01:56;16.60;99.90
21280;DHT22;11764;43.100;25.716;2022-09-13T01:04:24;16.60;99.90
21280;DHT22;11764;43.100;25.716;2022-09-13T01:06:53;16.60;99.90
21280;DHT22;11764;43.100;25.716;2022-09-13T01:09:21;16.60;99.90
21280;DHT22;11764;43.100;25.716;2022-09-13T01:11:52;16.50;99.90
21280;DHT22;11764;43.100;25.716;2022-09-13T01:14:26;16.50;99.90
21280;DHT22;11764;43.100;25.716;2022-09-13T01:16:52;16.50;99.90
21280;DHT22;11764;43.100;25.716;2022-09-13T01:19:19;16.50;99.90
21280;DHT22;11764;43.100;25.716;2022-09-13T01:25:01;16.40;99.90
21280;DHT22;11764;43.100;25.716;2022-09-13T01:30:26;16.40;99.90
21280;DHT22;11764;43.100;25.716;2022-09-13T01:39:08;16.30;99.90
21280;DHT22;11764;43.100;25.716;2022-09-13T01:55:07;16.10;99.90
21280;DHT22;11764;43.100;25.716;2022-09-13T02:00:20;16.10;99.90
21280;DHT22;11764;43.100;25.716;2022-09-13T02:02:51;16.10;99.90
21280;DHT22;11764;43.100;25.716;2022-09-13T02:08:31;16.00;99.90
21280;DHT22;11764;43.100;25.716;2022-09-13T02:11:05;16.00;99.90
21280;DHT22;11764;43.100;25.716;2022-09-13T02:13:36;16.00;99.90
21280;DHT22;11764;43.100;25.716;2022-09-13T02:16:12;16.10;99.90
21280;DHT22;11764;43.100;25.716;2022-09-13T02:18:45;16.10;99.90
21280;DHT22;11764;43.100;25.716;2022-09-13T02:21:21;16.20;99.90
21280;DHT22;11764;43.100;25.716;2022-09-13T02:23:50;16.20;99.90
21280;DHT22;11764;43.100;25.716;2022-09-13T02:26:20;16.20;99.90
21280;DHT22;11764;43.100;25.716;2022-09-13T02:28:53;16.20;99.90
21280;DHT22;11764;43.100;25.716;2022-09-13T02:31:25;16.20;99.90
21280;DHT22;11764;43.100;25.716;2022-09-13T02:33:59;16.20;99.90
21280;DHT22;11764;43.100;25.716;2022-09-13T02:36:31;16.20;99.90
21280;DHT22;11764;43.100;25.716;2022-09-13T02:39:16;16.20;99.90
21280;DHT22;11764;43.100;25.716;2022-09-13T02:44:23;16.20;99.90
21280;DHT22;11764;43.100;25.716;2022-09-13T02:49:53;16.20;99.90
21280;DHT22;11764;43.100;25.716;2022-09-13T03:00:18;16.20;99.90
21280;DHT22;11764;43.100;25.716;2022-09-13T03:02:46;16.20;99.90
21280;DHT22;11764;43.100;25.716;2022-09-13T03:05:13;16.20;99.90
21280;DHT22;11764;43.100;25.716;2022-09-13T03:07:39;16.20;99.90
21280;DHT22;11764;43.100;25.716;2022-09-13T03:10:10;16.20;99.90
21280;DHT22;11764;43.100;25.716;2022-09-13T03:13:26;16.20;99.90
21280;DHT22;11764;43.100;25.716;2022-09-13T03:21:10;16.10;99.90
21280;DHT22;11764;43.100;25.716;2022-09-13T03:34:54;16.10;99.90
21280;DHT22;11764;43.100;25.716;2022-09-13T03:38:00;16.20;99.90
21280;DHT22;11764;43.100;25.716;2022-09-13T03:40:43;16.20;99.90
21280;DHT22;11764;43.100;25.716;2022-09-13T03:43:14;16.10;99.90
21280;DHT22;11764;43.100;25.716;2022-09-13T03:45:51;16.10;99.90
21280;DHT22;11764;43.100;25.716;2022-09-13T03:48:19;16.00;99.90
21280;DHT22;11764;43.100;25.716;2022-09-13T03:50:46;15.90;99.90
21280;DHT22;11764;43.100;25.716;2022-09-13T03:53:18;15.90;99.90
21280;DHT22;11764;43.100;25.716;2022-09-13T03:55:45;15.90;99.90
21280;DHT22;11764;43.100;25.716;2022-09-13T03:58:13;16.00;99.90
21280;DHT22;11764;43.100;25.716;2022-09-13T04:00:39;16.00;99.90
21280;DHT22;11764;43.100;25.716;2022-09-13T04:03:06;16.00;99.90
21280;DHT22;11764;43.100;25.716;2022-09-13T04:05:32;15.90;99.90
21280;DHT22;11764;43.100;25.716;2022-09-13T04:07:59;15.90;99.90
21280;DHT22;11764;43.100;25.716;2022-09-13T04:10:27;15.80;99.90
21280;DHT22;11764;43.100;25.716;2022-09-13T04:12:55;15.80;99.90
21280;DHT22;11764;43.100;25.716;2022-09-13T04:15:21;15.80;99.90
21280;DHT22;11764;43.100;25.716;2022-09-13T04:17:47;15.80;99.90
21280;DHT22;11764;43.100;25.716;2022-09-13T04:20:13;15.90;99.90
21280;DHT22;11764;43.100;25.716;2022-09-13T04:22:39;16.00;99.90
21280;DHT22;11764;43.100;25.716;2022-09-13T04:25:05;16.10;99.90
21280;DHT22;11764;43.100;25.716;2022-09-13T04:27:31;16.10;99.90
21280;DHT22;11764;43.100;25.716;2022-09-13T04:29:57;16.20;99.90
21280;DHT22;11764;43.100;25.716;2022-09-13T04:32:22;16.20;99.90
21280;DHT22;11764;43.100;25.716;2022-09-13T04:34:48;16.40;99.90
21280;DHT22;11764;43.100;25.716;2022-09-13T04:37:14;16.40;99.90
21280;DHT22;11764;43.100;25.716;2022-09-13T04:39:40;16.30;99.90
21280;DHT22;11764;43.100;25.716;2022-09-13T04:42:06;16.40;99.90
21280;DHT22;11764;43.100;25.716;2022-09-13T04:44:32;16.40;99.90
21280;DHT22;11764;43.100;25.716;2022-09-13T04:46:58;16.50;99.90
21280;DHT22;11764;43.100;25.716;2022-09-13T04:49:24;16.50;99.90
21280;DHT22;11764;43.100;25.716;2022-09-13T04:51:50;16.50;99.90
21280;DHT22;11764;43.100;25.716;2022-09-13T04:54:17;16.50;99.90
21280;DHT22;11764;43.100;25.716;2022-09-13T04:56:43;16.60;99.90
21280;DHT22;11764;43.100;25.716;2022-09-13T04:59:10;16.70;99.90
21280;DHT22;11764;43.100;25.716;2022-09-13T05:01:36;16.80;99.90
21280;DHT22;11764;43.100;25.716;2022-09-13T05:04:03;16.80;99.90
21280;DHT22;11764;43.100;25.716;2022-09-13T05:06:29;17.00;99.90
21280;DHT22;11764;43.100;25.716;2022-09-13T05:08:55;17.00;99.90
21280;DHT22;11764;43.100;25.716;2022-09-13T05:11:25;17.10;99.90
21280;DHT22;11764;43.100;25.716;2022-09-13T05:13:53;17.10;99.90
21280;DHT22;11764;43.100;25.716;2022-09-13T05:16:23;17.30;99.90
21280;DHT22;11764;43.100;25.716;2022-09-13T05:18:50;17.50;99.90
21280;DHT22;11764;43.100;25.716;2022-09-13T05:21:16;17.50;99.90
21280;DHT22;11764;43.100;25.716;2022-09-13T05:23:43;17.50;99.90
21280;DHT22;11764;43.100;25.716;2022-09-13T05:26:09;17.40;99.90
21280;DHT22;11764;43.100;25.716;2022-09-13T05:28:35;17.40;99.90
21280;DHT22;11764;43.100;25.716;2022-09-13T05:31:07;17.60;99.90
21280;DHT22;11764;43.100;25.716;2022-09-13T05:33:35;17.90;99.90
21280;DHT22;11764;43.100;25.716;2022-09-13T05:36:02;17.90;99.90
21280;DHT22;11764;43.100;25.716;2022-09-13T05:38:29;17.80;99.90
21280;DHT22;11764;43.100;25.716;2022-09-13T05:40:59;17.90;99.90
21280;DHT22;11764;43.100;25.716;2022-09-13T05:43:28;17.70;99.90
21280;DHT22;11764;43.100;25.716;2022-09-13T05:46:06;17.60;99.90
21280;DHT22;11764;43.100;25.716;2022-09-13T05:48:33;17.60;99.90
21280;DHT22;11764;43.100;25.716;2022-09-13T05:51:16;17.70;99.90
21280;DHT22;11764;43.100;25.716;2022-09-13T05:53:45;17.80;99.90
21280;DHT22;11764;43.100;25.716;2022-09-13T05:56:16;17.60;99.90
21280;DHT22;11764;43.100;25.716;2022-09-13T05:58:44;17.70;99.90
21280;DHT22;11764;43.100;25.716;2022-09-13T06:01:11;18.00;99.90
21280;DHT22;11764;43.100;25.716;2022-09-13T06:03:38;18.10;99.90
21280;DHT22;11764;43.100;25.716;2022-09-13T06:06:04;18.00;99.90
21280;DHT22;11764;43.100;25.716;2022-09-13T06:08:31;18.00;99.90
21280;DHT22;11764;43.100;25.716;2022-09-13T06:11:00;18.10;99.90
21280;DHT22;11764;43.100;25.716;2022-09-13T06:13:26;18.20;99.90
21280;DHT22;11764;43.100;25.716;2022-09-13T06:15:54;18.20;99.90
21280;DHT22;11764;43.100;25.716;2022-09-13T06:18:20;18.10;99.90
21280;DHT22;11764;43.100;25.716;2022-09-13T06:20:46;17.90;99.90
21280;DHT22;11764;43.100;25.716;2022-09-13T06:23:12;18.00;99.90
21280;DHT22;11764;43.100;25.716;2022-09-13T06:25:38;18.30;99.90
21280;DHT22;11764;43.100;25.716;2022-09-13T06:28:04;18.40;99.90
21280;DHT22;11764;43.100;25.716;2022-09-13T06:30:30;18.60;99.90
21280;DHT22;11764;43.100;25.716;2022-09-13T06:32:56;18.70;99.90
21280;DHT22;11764;43.100;25.716;2022-09-13T06:35:22;18.70;99.90
21280;DHT22;11764;43.100;25.716;2022-09-13T06:37:48;18.70;99.90
21280;DHT22;11764;43.100;25.716;2022-09-13T06:40:14;18.80;99.90
21280;DHT22;11764;43.100;25.716;2022-09-13T06:42:41;18.80;99.90
21280;DHT22;11764;43.100;25.716;2022-09-13T06:45:07;18.70;99.90
21280;DHT22;11764;43.100;25.716;2022-09-13T06:47:34;18.60;99.90
21280;DHT22;11764;43.100;25.716;2022-09-13T06:50:00;18.80;99.90
21280;DHT22;11764;43.100;25.716;2022-09-13T06:52:26;19.10;99.90
21280;DHT22;11764;43.100;25.716;2022-09-13T06:54:52;19.20;99.90
21280;DHT22;11764;43.100;25.716;2022-09-13T06:57:18;19.30;99.90
21280;DHT22;11764;43.100;25.716;2022-09-13T06:59:44;19.40;99.90
21280;DHT22;11764;43.100;25.716;2022-09-13T07:02:10;19.50;99.90
21280;DHT22;11764;43.100;25.716;2022-09-13T07:04:36;19.50;99.90
21280;DHT22;11764;43.100;25.716;2022-09-13T07:07:02;19.60;99.90
21280;DHT22;11764;43.100;25.716;2022-09-13T07:09:28;19.70;99.90
21280;DHT22;11764;43.100;25.716;2022-09-13T07:11:54;19.50;99.90
21280;DHT22;11764;43.100;25.716;2022-09-13T07:14:22;19.60;99.90
21280;DHT22;11764;43.100;25.716;2022-09-13T07:16:49;19.60;99.90
21280;DHT22;11764;43.100;25.716;2022-09-13T07:19:26;19.60;99.90
21280;DHT22;11764;43.100;25.716;2022-09-13T07:21:53;19.70;99.90
21280;DHT22;11764;43.100;25.716;2022-09-13T07:24:20;20.00;99.90
21280;DHT22;11764;43.100;25.716;2022-09-13T07:26:46;20.10;99.90
21280;DHT22;11764;43.100;25.716;2022-09-13T07:29:19;20.10;99.90
21280;DHT22;11764;43.100;25.716;2022-09-13T07:31:50;19.90;99.90
21280;DHT22;11764;43.100;25.716;2022-09-13T07:34:18;19.80;99.90
21280;DHT22;11764;43.100;25.716;2022-09-13T07:36:45;20.00;99.90
21280;DHT22;11764;43.100;25.716;2022-09-13T07:39:14;20.40;99.90
21280;DHT22;11764;43.100;25.716;2022-09-13T07:41:40;20.30;99.90
21280;DHT22;11764;43.100;25.716;2022-09-13T07:44:08;20.00;99.90
21280;DHT22;11764;43.100;25.716;2022-09-13T07:46:35;20.00;99.90
21280;DHT22;11764;43.100;25.716;2022-09-13T07:49:04;20.20;99.90
21280;DHT22;11764;43.100;25.716;2022-09-13T07:51:33;20.40;99.90
21280;DHT22;11764;43.100;25.716;2022-09-13T07:54:04;20.30;99.90
21280;DHT22;11764;43.100;25.716;2022-09-13T07:56:33;20.60;99.90
21280;DHT22;11764;43.100;25.716;2022-09-13T07:59:00;20.60;99.90
21280;DHT22;11764;43.100;25.716;2022-09-13T08:01:33;20.50;99.90
21280;DHT22;11764;43.100;25.716;2022-09-13T08:04:01;20.50;99.90
21280;DHT22;11764;43.100;25.716;2022-09-13T08:06:29;20.60;99.90
21280;DHT22;11764;43.100;25.716;2022-09-13T08:08:55;20.70;99.90
21280;DHT22;11764;43.100;25.716;2022-09-13T08:11:23;20.50;99.90
21280;DHT22;11764;43.100;25.716;2022-09-13T08:13:51;20.20;99.90
21280;DHT22;11764;43.100;25.716;2022-09-13T08:16:18;20.20;99.90
21280;DHT22;11764;43.100;25.716;2022-09-13T08:18:50;20.40;99.90
21280;DHT22;11764;43.100;25.716;2022-09-13T08:21:16;20.40;99.90
21280;DHT22;11764;43.100;25.716;2022-09-13T08:23:42;20.50;99.90
21280;DHT22;11764;43.100;25.716;2022-09-13T08:26:09;20.80;99.90
21280;DHT22;11764;43.100;25.716;2022-09-13T08:28:39;21.10;99.90
21280;DHT22;11764;43.100;25.716;2022-09-13T08:31:10;21.20;99.90
21280;DHT22;11764;43.100;25.716;2022-09-13T08:33:38;21.20;99.90
21280;DHT22;11764;43.100;25.716;2022-09-13T08:36:04;21.20;99.90
21280;DHT22;11764;43.100;25.716;2022-09-13T08:38:31;21.50;99.90
21280;DHT22;11764;43.100;25.716;2022-09-13T08:46:42;21.00;99.90
21280;DHT22;11764;43.100;25.716;2022-09-13T08:49:17;21.20;99.90
21280;DHT22;11764;43.100;25.716;2022-09-13T08:54:16;21.50;99.90
21280;DHT22;11764;43.100;25.716;2022-09-13T09:07:52;21.20;99.90
21280;DHT22;11764;43.100;25.716;2022-09-13T09:10:23;21.60;99.90
21280;DHT22;11764;43.100;25.716;2022-09-13T09:13:02;21.60;99.90
21280;DHT22;11764;43.100;25.716;2022-09-13T09:15:30;21.50;99.90
21280;DHT22;11764;43.100;25.716;2022-09-13T09:18:05;21.30;99.90
21280;DHT22;11764;43.100;25.716;2022-09-13T09:20:46;21.30;99.90
21280;DHT22;11764;43.100;25.716;2022-09-13T09:23:34;21.50;99.90
21280;DHT22;11764;43.100;25.716;2022-09-13T09:26:17;21.70;99.90
21280;DHT22;11764;43.100;25.716;2022-09-13T09:29:17;22.10;99.90
21280;DHT22;11764;43.100;25.716;2022-09-13T09:31:53;21.40;99.90
21280;DHT22;11764;43.100;25.716;2022-09-13T09:37:36;21.90;99.90
21280;DHT22;11764;43.100;25.716;2022-09-13T09:40:04;22.00;99.90
21280;DHT22;11764;43.100;25.716;2022-09-13T09:42:45;22.30;99.90
21280;DHT22;11764;43.100;25.716;2022-09-13T09:45:27;22.40;99.90
21280;DHT22;11764;43.100;25.716;2022-09-13T09:47:54;22.10;99.90
21280;DHT22;11764;43.100;25.716;2022-09-13T09:50:24;21.70;99.90
21280;DHT22;11764;43.100;25.716;2022-09-13T09:53:09;22.00;99.90
21280;DHT22;11764;43.100;25.716;2022-09-13T09:58:11;22.10;99.90
21280;DHT22;11764;43.100;25.716;2022-09-13T10:00:57;22.20;99.90
21280;DHT22;11764;43.100;25.716;2022-09-13T10:03:28;22.20;99.90
21280;DHT22;11764;43.100;25.716;2022-09-13T10:06:20;22.60;99.90
21280;DHT22;11764;43.100;25.716;2022-09-13T10:09:21;23.20;99.90
21280;DHT22;11764;43.100;25.716;2022-09-13T10:11:52;23.00;99.90
21280;DHT22;11764;43.100;25.716;2022-09-13T10:14:34;22.30;99.90
21280;DHT22;11764;43.100;25.716;2022-09-13T10:17:24;22.00;99.90
21280;DHT22;11764;43.100;25.716;2022-09-13T10:20:01;21.90;99.90
21280;DHT22;11764;43.100;25.716;2022-09-13T10:22:30;22.00;99.90
21280;DHT22;11764;43.100;25.716;2022-09-13T10:25:13;22.10;99.90
21280;DHT22;11764;43.100;25.716;2022-09-13T10:27:41;22.00;99.90
21280;DHT22;11764;43.100;25.716;2022-09-13T10:30:34;21.90;99.90
21280;DHT22;11764;43.100;25.716;2022-09-13T10:33:02;22.00;99.90
21280;DHT22;11764;43.100;25.716;2022-09-13T10:35:28;22.40;99.90
21280;DHT22;11764;43.100;25.716;2022-09-13T10:37:54;22.60;99.90
21280;DHT22;11764;43.100;25.716;2022-09-13T10:40:29;22.40;99.90
21280;DHT22;11764;43.100;25.716;2022-09-13T10:43:01;22.30;99.90
21280;DHT22;11764;43.100;25.716;2022-09-13T10:45:30;22.40;99.90
21280;DHT22;11764;43.100;25.716;2022-09-13T10:48:09;22.40;99.90
21280;DHT22;11764;43.100;25.716;2022-09-13T10:50:37;22.30;99.90
21280;DHT22;11764;43.100;25.716;2022-09-13T10:53:03;22.00;99.90
21280;DHT22;11764;43.100;25.716;2022-09-13T10:55:37;22.10;99.90
21280;DHT22;11764;43.100;25.716;2022-09-13T11:01:05;21.90;99.90
21280;DHT22;11764;43.100;25.716;2022-09-13T11:25:46;22.70;99.90
21280;DHT22;11764;43.100;25.716;2022-09-13T11:33:55;23.10;98.10
21280;DHT22;11764;43.100;25.716;2022-09-13T11:39:37;23.00;98.50
21280;DHT22;11764;43.100;25.716;2022-09-13T11:42:19;23.00;99.50
21280;DHT22;11764;43.100;25.716;2022-09-13T11:45:04;23.00;98.70
21280;DHT22;11764;43.100;25.716;2022-09-13T11:50:41;22.40;98.60
21280;DHT22;11764;43.100;25.716;2022-09-13T11:53:47;22.40;98.20
21280;DHT22;11764;43.100;25.716;2022-09-13T11:56:25;22.50;96.50
21280;DHT22;11764;43.100;25.716;2022-09-13T11:59:06;22.90;97.60
21280;DHT22;11764;43.100;25.716;2022-09-13T12:01:37;22.80;95.30
21280;DHT22;11764;43.100;25.716;2022-09-13T12:04:15;22.70;96.30
21280;DHT22;11764;43.100;25.716;2022-09-13T12:06:45;22.60;98.10
21280;DHT22;11764;43.100;25.716;2022-09-13T12:09:28;22.60;97.60
21280;DHT22;11764;43.100;25.716;2022-09-13T12:14:53;22.50;99.00
21280;DHT22;11764;43.100;25.716;2022-09-13T12:17:29;22.50;99.00
21280;DHT22;11764;43.100;25.716;2022-09-13T12:19:57;22.40;98.20
21280;DHT22;11764;43.100;25.716;2022-09-13T12:22:29;22.50;98.80
21280;DHT22;11764;43.100;25.716;2022-09-13T12:25:01;22.70;98.90
21280;DHT22;11764;43.100;25.716;2022-09-13T12:27:44;22.90;97.60
21280;DHT22;11764;43.100;25.716;2022-09-13T12:30:21;23.00;97.20
21280;DHT22;11764;43.100;25.716;2022-09-13T12:32:48;23.20;97.40
21280;DHT22;11764;43.100;25.716;2022-09-13T12:35:35;23.20;97.60
21280;DHT22;11764;43.100;25.716;2022-09-13T12:41:13;22.90;97.30
21280;DHT22;11764;43.100;25.716;2022-09-13T12:49:33;23.80;96.30
21280;DHT22;11764;43.100;25.716;2022-09-13T13:00:22;23.80;94.60
21280;DHT22;11764;43.100;25.716;2022-09-13T13:05:23;23.80;94.90
21280;DHT22;11764;43.100;25.716;2022-09-13T13:07:52;23.70;94.90
21280;DHT22;11764;43.100;25.716;2022-09-13T13:10:31;23.90;95.50
21280;DHT22;11764;43.100;25.716;2022-09-13T13:13:34;23.50;94.20
21280;DHT22;11764;43.100;25.716;2022-09-13T13:18:57;23.60;92.60
21280;DHT22;11764;43.100;25.716;2022-09-13T13:21:27;23.50;91.70
21280;DHT22;11764;43.100;25.716;2022-09-13T13:26:52;23.30;92.80
21280;DHT22;11764;43.100;25.716;2022-09-13T13:29:23;23.20;92.60
21280;DHT22;11764;43.100;25.716;2022-09-13T13:39:38;22.70;93.20
21280;DHT22;11764;43.100;25.716;2022-09-13T13:42:25;22.80;93.70
21280;DHT22;11764;43.100;25.716;2022-09-13T14:02:52;23.90;90.80
21280;DHT22;11764;43.100;25.716;2022-09-13T14:19:52;24.10;91.30
21280;DHT22;11764;43.100;25.716;2022-09-13T14:22:27;24.00;92.10
21280;DHT22;11764;43.100;25.716;2022-09-13T14:27:47;23.30;92.90
21280;DHT22;11764;43.100;25.716;2022-09-13T14:30:23;23.10;93.30
21280;DHT22;11764;43.100;25.716;2022-09-13T14:32:53;23.00;94.10
21280;DHT22;11764;43.100;25.716;2022-09-13T14:35:39;23.10;93.60
21280;DHT22;11764;43.100;25.716;2022-09-13T14:40:53;23.60;93.30
21280;DHT22;11764;43.100;25.716;2022-09-13T14:43:25;23.40;93.50
21280;DHT22;11764;43.100;25.716;2022-09-13T14:46:06;23.50;93.00
21280;DHT22;11764;43.100;25.716;2022-09-13T14:48:41;23.30;94.00
21280;DHT22;11764;43.100;25.716;2022-09-13T14:51:14;23.00;93.70
21280;DHT22;11764;43.100;25.716;2022-09-13T14:53:43;22.80;94.50
21280;DHT22;11764;43.100;25.716;2022-09-13T14:56:31;22.70;95.20
21280;DHT22;11764;43.100;25.716;2022-09-13T14:58:59;22.50;95.40
21280;DHT22;11764;43.100;25.716;2022-09-13T15:01:29;22.50;96.40
21280;DHT22;11764;43.100;25.716;2022-09-13T15:03:57;22.90;95.40
21280;DHT22;11764;43.100;25.716;2022-09-13T15:06:30;23.30;95.30
21280;DHT22;11764;43.100;25.716;2022-09-13T15:11:54;24.00;93.90
21280;DHT22;11764;43.100;25.716;2022-09-13T15:14:43;24.30;93.40
21280;DHT22;11764;43.100;25.716;2022-09-13T15:17:10;24.60;92.50
21280;DHT22;11764;43.100;25.716;2022-09-13T15:22:14;24.50;91.40
21280;DHT22;11764;43.100;25.716;2022-09-13T15:25:00;24.50;91.20
21280;DHT22;11764;43.100;25.716;2022-09-13T15:27:29;24.50;90.20
21280;DHT22;11764;43.100;25.716;2022-09-13T15:29:58;24.20;87.40
21280;DHT22;11764;43.100;25.716;2022-09-13T15:32:31;24.10;86.90
21280;DHT22;11764;43.100;25.716;2022-09-13T15:34:58;23.80;88.80
21280;DHT22;11764;43.100;25.716;2022-09-13T15:37:36;23.60;89.60
21280;DHT22;11764;43.100;25.716;2022-09-13T15:40:18;23.60;90.30
21280;DHT22;11764;43.100;25.716;2022-09-13T15:42:46;23.70;90.40
21280;DHT22;11764;43.100;25.716;2022-09-13T15:45:11;23.30;90.40
21280;DHT22;11764;43.100;25.716;2022-09-13T15:47:38;22.80;90.60
21280;DHT22;11764;43.100;25.716;2022-09-13T15:50:04;22.50;91.60
21280;DHT22;11764;43.100;25.716;2022-09-13T15:52:30;22.30;91.90
21280;DHT22;11764;43.100;25.716;2022-09-13T15:54:56;22.20;92.40
21280;DHT22;11764;43.100;25.716;2022-09-13T15:57:25;22.10;92.70
21280;DHT22;11764;43.100;25.716;2022-09-13T15:59:52;22.00;92.90
21280;DHT22;11764;43.100;25.716;2022-09-13T16:02:26;21.90;93.50
21280;DHT22;11764;43.100;25.716;2022-09-13T16:04:54;21.80;93.60
21280;DHT22;11764;43.100;25.716;2022-09-13T16:07:20;21.60;94.30
21280;DHT22;11764;43.100;25.716;2022-09-13T16:09:46;21.60;93.70
21280;DHT22;11764;43.100;25.716;2022-09-13T16:12:13;21.60;93.90
21280;DHT22;11764;43.100;25.716;2022-09-13T16:14:39;21.50;93.80
21280;DHT22;11764;43.100;25.716;2022-09-13T16:17:09;21.50;93.80
21280;DHT22;11764;43.100;25.716;2022-09-13T16:19:35;21.40;93.90
21280;DHT22;11764;43.100;25.716;2022-09-13T16:22:01;21.30;94.20
21280;DHT22;11764;43.100;25.716;2022-09-13T16:24:27;21.20;94.40
21280;DHT22;11764;43.100;25.716;2022-09-13T16:26:53;21.10;95.10
21280;DHT22;11764;43.100;25.716;2022-09-13T16:29:19;21.00;95.40
21280;DHT22;11764;43.100;25.716;2022-09-13T16:31:45;20.90;95.40
21280;DHT22;11764;43.100;25.716;2022-09-13T16:34:10;20.80;95.60
21280;DHT22;11764;43.100;25.716;2022-09-13T16:36:36;20.70;95.80
21280;DHT22;11764;43.100;25.716;2022-09-13T16:39:02;20.70;95.70
21280;DHT22;11764;43.100;25.716;2022-09-13T16:41:28;20.60;95.90
21280;DHT22;11764;43.100;25.716;2022-09-13T16:43:54;20.60;95.60
21280;DHT22;11764;43.100;25.716;2022-09-13T16:46:20;20.60;95.80
21280;DHT22;11764;43.100;25.716;2022-09-13T16:48:51;20.60;95.70
21280;DHT22;11764;43.100;25.716;2022-09-13T16:51:18;20.50;96.10
21280;DHT22;11764;43.100;25.716;2022-09-13T16:53:44;20.50;95.90
21280;DHT22;11764;43.100;25.716;2022-09-13T16:56:15;20.60;95.90
21280;DHT22;11764;43.100;25.716;2022-09-13T16:58:44;20.50;96.00
21280;DHT22;11764;43.100;25.716;2022-09-13T17:01:13;20.50;96.10
21280;DHT22;11764;43.100;25.716;2022-09-13T17:03:39;20.50;96.10
21280;DHT22;11764;43.100;25.716;2022-09-13T17:06:08;20.40;96.30
21280;DHT22;11764;43.100;25.716;2022-09-13T17:08:36;20.50;96.10
21280;DHT22;11764;43.100;25.716;2022-09-13T17:11:06;20.40;96.20
21280;DHT22;11764;43.100;25.716;2022-09-13T17:13:34;20.40;96.60
21280;DHT22;11764;43.100;25.716;2022-09-13T17:15:59;20.40;96.50
21280;DHT22;11764;43.100;25.716;2022-09-13T17:18:26;20.30;97.00
21280;DHT22;11764;43.100;25.716;2022-09-13T17:20:51;20.30;96.90
21280;DHT22;11764;43.100;25.716;2022-09-13T17:23:17;20.30;97.10
21280;DHT22;11764;43.100;25.716;2022-09-13T17:25:46;20.20;97.30
21280;DHT22;11764;43.100;25.716;2022-09-13T17:28:13;20.20;97.30
21280;DHT22;11764;43.100;25.716;2022-09-13T17:30:39;20.20;98.10
21280;DHT22;11764;43.100;25.716;2022-09-13T17:33:05;20.20;97.80
21280;DHT22;11764;43.100;25.716;2022-09-13T17:35:31;20.20;97.50
21280;DHT22;11764;43.100;25.716;2022-09-13T17:37:58;20.20;97.60
21280;DHT22;11764;43.100;25.716;2022-09-13T17:40:25;20.10;98.00
21280;DHT22;11764;43.100;25.716;2022-09-13T17:42:50;20.20;97.60
21280;DHT22;11764;43.100;25.716;2022-09-13T17:45:17;20.10;97.80
21280;DHT22;11764;43.100;25.716;2022-09-13T17:47:43;20.10;97.90
21280;DHT22;11764;43.100;25.716;2022-09-13T17:50:09;20.00;98.00
21280;DHT22;11764;43.100;25.716;2022-09-13T17:52:35;19.90;98.50
21280;DHT22;11764;43.100;25.716;2022-09-13T17:55:01;19.90;98.70
21280;DHT22;11764;43.100;25.716;2022-09-13T17:57:27;19.90;98.50
21280;DHT22;11764;43.100;25.716;2022-09-13T17:59:53;20.00;98.80
21280;DHT22;11764;43.100;25.716;2022-09-13T18:02:19;20.00;98.50
21280;DHT22;11764;43.100;25.716;2022-09-13T18:04:47;20.00;98.40
21280;DHT22;11764;43.100;25.716;2022-09-13T18:07:15;20.00;98.70
21280;DHT22;11764;43.100;25.716;2022-09-13T18:09:41;19.90;99.00
21280;DHT22;11764;43.100;25.716;2022-09-13T18:12:08;19.90;98.70
21280;DHT22;11764;43.100;25.716;2022-09-13T18:14:33;19.90;98.70
21280;DHT22;11764;43.100;25.716;2022-09-13T18:16:59;19.80;98.70
21280;DHT22;11764;43.100;25.716;2022-09-13T18:19:25;19.90;98.80
21280;DHT22;11764;43.100;25.716;2022-09-13T18:21:52;19.80;98.70
21280;DHT22;11764;43.100;25.716;2022-09-13T18:24:18;19.80;98.90
21280;DHT22;11764;43.100;25.716;2022-09-13T18:26:44;19.80;98.60
21280;DHT22;11764;43.100;25.716;2022-09-13T18:29:11;19.80;99.00
21280;DHT22;11764;43.100;25.716;2022-09-13T18:31:39;19.70;99.00
21280;DHT22;11764;43.100;25.716;2022-09-13T18:34:07;19.60;99.20
21280;DHT22;11764;43.100;25.716;2022-09-13T18:36:35;19.50;99.40
21280;DHT22;11764;43.100;25.716;2022-09-13T18:39:02;19.60;98.70
21280;DHT22;11764;43.100;25.716;2022-09-13T18:41:33;19.60;99.00
21280;DHT22;11764;43.100;25.716;2022-09-13T18:43:59;19.60;99.70
21280;DHT22;11764;43.100;25.716;2022-09-13T18:46:27;19.60;99.70
21280;DHT22;11764;43.100;25.716;2022-09-13T18:48:55;19.50;99.70
21280;DHT22;11764;43.100;25.716;2022-09-13T18:51:30;19.50;99.60
21280;DHT22;11764;43.100;25.716;2022-09-13T18:53:57;19.40;99.90
21280;DHT22;11764;43.100;25.716;2022-09-13T18:56:24;19.50;99.60
21280;DHT22;11764;43.100;25.716;2022-09-13T18:58:51;19.60;99.50